createdAt,value
2018-05-10T00:00:23.625Z,0
2018-05-10T00:00:55.726Z,0
2018-05-10T00:01:27.817Z,0
2018-05-10T00:01:59.892Z,0
2018-05-10T00:02:31.967Z,0
2018-05-10T00:03:04.069Z,0
2018-05-10T00:03:36.144Z,0
2018-05-10T00:04:08.243Z,0
2018-05-10T00:04:40.331Z,0
2018-05-10T00:05:12.426Z,0
2018-05-10T00:05:44.535Z,0
2018-05-10T00:06:16.634Z,0
2018-05-10T00:06:48.730Z,0
2018-05-10T00:07:20.819Z,0
2018-05-10T00:07:52.989Z,0
2018-05-10T00:08:25.016Z,0
2018-05-10T00:08:57.125Z,0
2018-05-10T00:09:29.283Z,0
2018-05-10T00:10:01.337Z,0
2018-05-10T00:11:52.782Z,0
2018-05-10T00:12:24.887Z,0
2018-05-10T00:12:56.968Z,0
2018-05-10T00:13:29.099Z,0
2018-05-10T00:14:01.172Z,0
2018-05-10T00:14:33.262Z,0
2018-05-10T00:15:05.376Z,0
2018-05-10T00:15:37.454Z,0
2018-05-10T00:17:29.195Z,0
2018-05-10T00:19:20.635Z,0
2018-05-10T00:19:52.709Z,0
2018-05-10T00:21:44.435Z,0
2018-05-10T00:22:16.547Z,0
2018-05-10T00:22:48.615Z,0
2018-05-10T00:23:20.710Z,0
2018-05-10T00:23:52.796Z,0
2018-05-10T00:24:24.960Z,0
2018-05-10T00:26:16.346Z,0
2018-05-10T00:26:48.436Z,0
2018-05-10T00:27:20.518Z,0
2018-05-10T00:27:52.621Z,0
2018-05-10T00:28:24.723Z,0
2018-05-10T00:28:56.820Z,0
2018-05-10T00:29:28.911Z,0
2018-05-10T00:30:01.011Z,0
2018-05-10T00:30:33.110Z,0
2018-05-10T00:31:05.232Z,0
2018-05-10T00:31:37.320Z,0
2018-05-10T00:32:09.411Z,0
2018-05-10T00:32:41.501Z,0
2018-05-10T00:33:13.573Z,0
2018-05-10T00:33:45.667Z,0
2018-05-10T00:34:17.763Z,0
2018-05-10T00:34:49.853Z,0
2018-05-10T00:35:21.955Z,0
2018-05-10T00:35:54.008Z,0
2018-05-10T00:36:26.100Z,0
2018-05-10T00:36:58.200Z,0
2018-05-10T00:37:30.281Z,0
2018-05-10T00:38:02.353Z,0
2018-05-10T00:38:34.441Z,0
2018-05-10T00:39:06.540Z,0
2018-05-10T00:39:38.592Z,0
2018-05-10T00:40:10.638Z,0
2018-05-10T00:40:42.763Z,0
2018-05-10T00:41:14.867Z,0
2018-05-10T00:41:46.960Z,0
2018-05-10T00:42:19.048Z,0
2018-05-10T00:42:51.131Z,0
2018-05-10T00:43:23.272Z,0
2018-05-10T00:43:55.381Z,0
2018-05-10T00:44:27.483Z,0
2018-05-10T00:44:59.580Z,0
2018-05-10T00:46:51.290Z,0
2018-05-10T00:47:23.378Z,0
2018-05-10T00:47:55.463Z,0
2018-05-10T00:48:27.570Z,0
2018-05-10T00:48:59.674Z,0
2018-05-10T00:49:31.769Z,0
2018-05-10T00:50:03.848Z,0
2018-05-10T00:50:35.935Z,0
2018-05-10T00:51:08.108Z,0
2018-05-10T00:51:40.122Z,0
2018-05-10T00:52:12.223Z,0
2018-05-10T00:52:44.336Z,0
2018-05-10T00:53:16.419Z,0
2018-05-10T00:53:48.591Z,0
2018-05-10T00:54:20.611Z,0
2018-05-10T00:56:12.195Z,0
2018-05-10T00:56:44.301Z,0
2018-05-10T00:57:16.399Z,0
2018-05-10T00:57:48.477Z,0
2018-05-10T00:58:20.577Z,0
2018-05-10T00:58:52.633Z,0
2018-05-10T00:59:24.735Z,0
2018-05-10T00:59:56.826Z,0
2018-05-10T01:00:28.916Z,0
2018-05-10T01:01:01.000Z,0
2018-05-10T01:01:33.094Z,0
2018-05-10T01:02:05.194Z,0
2018-05-10T01:02:37.287Z,0
2018-05-10T01:03:09.369Z,0
2018-05-10T01:03:41.472Z,0
2018-05-10T01:04:13.563Z,0
2018-05-10T01:04:45.664Z,0
2018-05-10T01:05:17.731Z,0
2018-05-10T01:05:49.829Z,0
2018-05-10T01:06:21.920Z,0
2018-05-10T01:06:54.018Z,0
2018-05-10T01:07:26.086Z,0
2018-05-10T01:07:58.178Z,0
2018-05-10T01:09:49.799Z,0
2018-05-10T01:10:21.894Z,0
2018-05-10T01:10:53.991Z,0
2018-05-10T01:11:26.057Z,0
2018-05-10T01:11:58.148Z,0
2018-05-10T01:12:30.239Z,0
2018-05-10T01:13:02.313Z,0
2018-05-10T01:13:34.425Z,0
2018-05-10T01:14:06.514Z,0
2018-05-10T01:14:38.615Z,0
2018-05-10T01:15:10.711Z,0
2018-05-10T01:15:42.798Z,0
2018-05-10T01:16:14.878Z,0
2018-05-10T01:16:46.971Z,0
2018-05-10T01:17:19.072Z,0
2018-05-10T01:17:51.162Z,0
2018-05-10T01:18:23.269Z,0
2018-05-10T01:18:55.359Z,0
2018-05-10T01:19:27.466Z,0
2018-05-10T01:19:59.574Z,0
2018-05-10T01:20:31.697Z,0
2018-05-10T01:21:03.760Z,0
2018-05-10T01:22:55.231Z,0
2018-05-10T01:23:27.327Z,0
2018-05-10T01:23:59.420Z,0
2018-05-10T01:24:31.523Z,0
2018-05-10T01:26:22.974Z,0
2018-05-10T01:26:55.071Z,0
2018-05-10T01:27:27.172Z,0
2018-05-10T01:27:59.276Z,0
2018-05-10T01:28:31.363Z,0
2018-05-10T01:29:03.446Z,0
2018-05-10T01:29:35.550Z,0
2018-05-10T01:30:07.654Z,0
2018-05-10T01:30:39.758Z,0
2018-05-10T01:31:11.855Z,0
2018-05-10T01:31:43.939Z,0
2018-05-10T01:32:16.026Z,0
2018-05-10T01:32:48.112Z,0
2018-05-10T01:33:20.225Z,0
2018-05-10T01:33:52.286Z,0
2018-05-10T01:35:43.980Z,0
2018-05-10T01:36:16.089Z,0
2018-05-10T01:36:48.193Z,0
2018-05-10T01:37:20.278Z,0
2018-05-10T01:37:52.385Z,0
2018-05-10T01:38:24.484Z,0
2018-05-10T01:38:56.587Z,0
2018-05-10T01:39:28.676Z,0
2018-05-10T01:40:00.765Z,0
2018-05-10T01:40:32.853Z,0
2018-05-10T01:41:05.033Z,0
2018-05-10T01:41:37.126Z,0
2018-05-10T01:42:09.219Z,0
2018-05-10T01:42:41.310Z,0
2018-05-10T01:43:13.407Z,0
2018-05-10T01:43:45.488Z,0
2018-05-10T01:45:37.250Z,0
2018-05-10T01:47:28.900Z,0
2018-05-10T01:48:00.999Z,0
2018-05-10T01:48:33.096Z,0
2018-05-10T01:49:05.199Z,0
2018-05-10T01:49:37.297Z,0
2018-05-10T01:50:09.411Z,0
2018-05-10T01:50:41.498Z,0
2018-05-10T01:51:13.602Z,0
2018-05-10T01:51:45.671Z,0
2018-05-10T01:52:17.753Z,0
2018-05-10T01:55:28.491Z,0
2018-05-10T01:56:00.587Z,0
2018-05-10T01:57:52.331Z,0
2018-05-10T01:58:24.424Z,0
2018-05-10T01:58:56.483Z,0
2018-05-10T01:59:28.582Z,0
2018-05-10T02:00:00.682Z,0
2018-05-10T02:01:52.402Z,0
2018-05-10T02:02:24.494Z,0
2018-05-10T02:02:56.577Z,0
2018-05-10T02:03:28.667Z,0
2018-05-10T02:04:00.764Z,0
2018-05-10T02:04:32.848Z,0
2018-05-10T02:05:04.934Z,0
2018-05-10T02:05:37.041Z,0
2018-05-10T02:06:09.128Z,0
2018-05-10T02:08:00.497Z,0
2018-05-10T02:08:36.445Z,0
2018-05-10T02:09:08.531Z,0
2018-05-10T02:09:40.631Z,0
2018-05-10T02:10:12.725Z,0
2018-05-10T02:10:44.813Z,0
2018-05-10T02:11:16.888Z,0
2018-05-10T02:11:48.961Z,0
2018-05-10T02:12:21.044Z,0
2018-05-10T02:12:53.129Z,0
2018-05-10T02:13:25.124Z,0
2018-05-10T02:13:57.103Z,0
2018-05-10T02:14:29.123Z,0
2018-05-10T02:15:01.134Z,0
2018-05-10T02:15:33.168Z,0
2018-05-10T02:16:05.193Z,0
2018-05-10T02:16:37.195Z,0
2018-05-10T02:17:09.236Z,0
2018-05-10T02:17:41.276Z,0
2018-05-10T02:18:13.298Z,0
2018-05-10T02:18:45.302Z,0
2018-05-10T02:19:17.373Z,0
2018-05-10T02:19:49.426Z,0
2018-05-10T02:20:21.423Z,0
2018-05-10T02:20:53.413Z,0
2018-05-10T02:21:25.428Z,0
2018-05-10T02:21:57.441Z,0
2018-05-10T02:22:29.531Z,0
2018-05-10T02:23:01.553Z,0
2018-05-10T02:23:33.564Z,0
2018-05-10T02:24:05.599Z,0
2018-05-10T02:24:37.624Z,0
2018-05-10T02:25:09.623Z,0
2018-05-10T02:25:41.740Z,0
2018-05-10T02:26:13.771Z,0
2018-05-10T02:26:45.743Z,0
2018-05-10T02:27:17.801Z,0
2018-05-10T02:27:49.907Z,0
2018-05-10T02:28:21.914Z,0
2018-05-10T02:28:53.931Z,0
2018-05-10T02:29:25.948Z,0
2018-05-10T02:29:57.943Z,0
2018-05-10T02:30:29.980Z,0
2018-05-10T02:31:02.044Z,0
2018-05-10T02:31:34.195Z,0
2018-05-10T02:32:06.259Z,0
2018-05-10T02:32:38.310Z,0
2018-05-10T02:33:10.332Z,0
2018-05-10T02:33:42.381Z,0
2018-05-10T02:34:14.439Z,0
2018-05-10T02:34:46.489Z,0
2018-05-10T02:35:18.498Z,0
2018-05-10T02:35:50.530Z,0
2018-05-10T02:36:22.691Z,0
2018-05-10T02:36:54.756Z,0
2018-05-10T02:37:26.772Z,0
2018-05-10T02:37:58.783Z,0
2018-05-10T02:38:30.854Z,0
2018-05-10T02:39:02.894Z,0
2018-05-10T02:39:34.941Z,0
2018-05-10T02:40:06.945Z,0
2018-05-10T02:40:38.973Z,0
2018-05-10T02:41:11.035Z,0
2018-05-10T02:41:43.088Z,0
2018-05-10T02:42:15.137Z,0
2018-05-10T02:42:47.139Z,0
2018-05-10T02:43:19.190Z,0
2018-05-10T02:43:51.210Z,0
2018-05-10T02:44:23.256Z,0
2018-05-10T02:44:55.319Z,0
2018-05-10T02:45:27.903Z,0
2018-05-10T02:45:59.937Z,0
2018-05-10T02:46:31.986Z,0
2018-05-10T02:47:04.079Z,0
2018-05-10T02:47:36.125Z,0
2018-05-10T02:48:08.205Z,0
2018-05-10T02:48:40.247Z,0
2018-05-10T02:49:12.270Z,0
2018-05-10T02:49:44.321Z,0
2018-05-10T02:50:16.344Z,0
2018-05-10T02:50:49.290Z,0
2018-05-10T02:51:21.336Z,0
2018-05-10T02:51:53.384Z,0
2018-05-10T02:52:25.410Z,0
2018-05-10T02:52:57.466Z,0
2018-05-10T02:53:29.515Z,0
2018-05-10T02:54:01.523Z,0
2018-05-10T02:54:33.539Z,0
2018-05-10T02:55:05.588Z,0
2018-05-10T02:55:37.639Z,0
2018-05-10T02:56:09.655Z,0
2018-05-10T02:56:41.693Z,0
2018-05-10T02:57:13.735Z,0
2018-05-10T02:57:45.739Z,0
2018-05-10T02:58:17.779Z,0
2018-05-10T02:58:49.826Z,0
2018-05-10T02:59:21.936Z,0
2018-05-10T02:59:53.952Z,0
2018-05-10T03:00:25.986Z,0
2018-05-10T03:00:58.036Z,0
2018-05-10T03:01:30.058Z,0
2018-05-10T03:02:02.122Z,0
2018-05-10T03:02:34.144Z,0
2018-05-10T03:03:06.130Z,0
2018-05-10T03:03:38.169Z,0
2018-05-10T03:04:10.211Z,0
2018-05-10T03:04:42.230Z,0
2018-05-10T03:05:14.261Z,0
2018-05-10T03:05:46.313Z,0
2018-05-10T03:06:18.310Z,0
2018-05-10T03:06:50.361Z,0
2018-05-10T03:07:22.397Z,0
2018-05-10T03:07:54.420Z,0
2018-05-10T03:08:26.423Z,0
2018-05-10T03:08:58.492Z,0
2018-05-10T03:09:34.422Z,0
2018-05-10T03:10:06.426Z,0
2018-05-10T03:10:38.470Z,0
2018-05-10T03:11:10.488Z,0
2018-05-10T03:11:42.523Z,0
2018-05-10T03:12:14.590Z,4
2018-05-10T03:12:46.621Z,4
2018-05-10T03:13:18.668Z,4
2018-05-10T03:13:50.720Z,4
2018-05-10T03:14:22.771Z,4
2018-05-10T03:14:54.782Z,0
2018-05-10T03:15:26.817Z,0
2018-05-10T03:15:58.891Z,4
2018-05-10T03:16:31.413Z,4
2018-05-10T03:17:04.213Z,4
2018-05-10T03:17:36.226Z,4
2018-05-10T03:18:08.735Z,4
2018-05-10T03:18:40.773Z,4
2018-05-10T03:19:12.797Z,4
2018-05-10T03:19:44.807Z,4
2018-05-10T03:20:16.821Z,4
2018-05-10T03:20:48.840Z,8
2018-05-10T03:21:20.887Z,8
2018-05-10T03:21:53.820Z,4
2018-05-10T03:22:25.932Z,8
2018-05-10T03:22:57.955Z,8
2018-05-10T03:23:29.940Z,12
2018-05-10T03:24:02.100Z,8
2018-05-10T03:24:34.149Z,8
2018-05-10T03:25:06.174Z,12
2018-05-10T03:25:38.155Z,12
2018-05-10T03:26:10.355Z,12
2018-05-10T03:26:42.383Z,12
2018-05-10T03:27:14.419Z,16
2018-05-10T03:27:46.531Z,16
2018-05-10T03:28:18.578Z,16
2018-05-10T03:28:50.609Z,16
2018-05-10T03:29:22.675Z,20
2018-05-10T03:29:54.815Z,20
2018-05-10T03:30:26.886Z,20
2018-05-10T03:30:58.930Z,20
2018-05-10T03:31:30.972Z,24
2018-05-10T03:32:03.814Z,24
2018-05-10T03:32:35.802Z,28
2018-05-10T03:33:07.844Z,32
2018-05-10T03:33:39.899Z,32
2018-05-10T03:34:11.951Z,32
2018-05-10T03:34:43.975Z,32
2018-05-10T03:35:16.037Z,36
2018-05-10T03:35:48.824Z,40
2018-05-10T03:36:20.883Z,40
2018-05-10T03:36:52.925Z,44
2018-05-10T03:37:25.006Z,44
2018-05-10T03:37:57.018Z,44
2018-05-10T03:38:29.101Z,48
2018-05-10T03:39:01.144Z,48
2018-05-10T03:39:33.184Z,52
2018-05-10T03:40:05.224Z,60
2018-05-10T03:40:37.347Z,60
2018-05-10T03:41:09.326Z,64
2018-05-10T03:41:41.365Z,64
2018-05-10T03:42:14.249Z,68
2018-05-10T03:42:46.306Z,72
2018-05-10T03:43:18.331Z,76
2018-05-10T03:43:50.401Z,72
2018-05-10T03:44:22.424Z,76
2018-05-10T03:44:54.423Z,80
2018-05-10T03:45:26.496Z,84
2018-05-10T03:45:58.531Z,88
2018-05-10T03:46:30.686Z,92
2018-05-10T03:47:02.816Z,96
2018-05-10T03:47:34.919Z,100
2018-05-10T03:48:06.931Z,100
2018-05-10T03:48:38.935Z,108
2018-05-10T03:49:11.079Z,108
2018-05-10T03:49:43.108Z,112
2018-05-10T03:50:15.151Z,120
2018-05-10T03:50:47.160Z,120
2018-05-10T03:51:19.173Z,124
2018-05-10T03:51:51.204Z,132
2018-05-10T03:52:23.247Z,132
2018-05-10T03:52:55.307Z,140
2018-05-10T03:53:27.350Z,140
2018-05-10T03:53:59.380Z,148
2018-05-10T03:54:31.412Z,152
2018-05-10T03:55:04.350Z,152
2018-05-10T03:55:36.379Z,160
2018-05-10T03:56:08.446Z,164
2018-05-10T03:56:40.502Z,172
2018-05-10T03:57:12.500Z,172
2018-05-10T03:57:44.547Z,176
2018-05-10T03:58:16.647Z,184
2018-05-10T03:58:48.683Z,188
2018-05-10T03:59:20.694Z,192
2018-05-10T03:59:52.800Z,196
2018-05-10T04:00:24.832Z,200
2018-05-10T04:00:56.872Z,204
2018-05-10T04:01:28.924Z,212
2018-05-10T04:02:00.962Z,216
2018-05-10T04:02:33.008Z,220
2018-05-10T04:03:05.043Z,224
2018-05-10T04:03:37.074Z,232
2018-05-10T04:04:09.111Z,236
2018-05-10T04:04:41.125Z,244
2018-05-10T04:05:13.175Z,248
2018-05-10T04:05:45.189Z,256
2018-05-10T04:06:17.243Z,260
2018-05-10T04:06:49.284Z,264
2018-05-10T04:07:21.291Z,268
2018-05-10T04:07:53.347Z,272
2018-05-10T04:08:25.366Z,280
2018-05-10T04:08:57.427Z,288
2018-05-10T04:09:29.453Z,292
2018-05-10T04:10:01.476Z,296
2018-05-10T04:10:33.516Z,300
2018-05-10T04:11:05.575Z,308
2018-05-10T04:11:37.612Z,312
2018-05-10T04:12:09.671Z,316
2018-05-10T04:12:41.707Z,324
2018-05-10T04:13:13.752Z,328
2018-05-10T04:13:45.824Z,336
2018-05-10T04:14:17.870Z,340
2018-05-10T04:14:49.912Z,344
2018-05-10T04:15:21.962Z,352
2018-05-10T04:15:54.029Z,356
2018-05-10T04:16:26.012Z,364
2018-05-10T04:16:58.048Z,368
2018-05-10T04:17:30.052Z,376
2018-05-10T04:18:02.119Z,380
2018-05-10T04:18:34.179Z,388
2018-05-10T04:19:07.168Z,396
2018-05-10T04:19:39.237Z,396
2018-05-10T04:20:11.420Z,408
2018-05-10T04:20:43.519Z,412
2018-05-10T04:21:15.547Z,420
2018-05-10T04:21:47.565Z,424
2018-05-10T04:22:19.601Z,428
2018-05-10T04:22:51.675Z,436
2018-05-10T04:23:23.735Z,440
2018-05-10T04:23:55.781Z,452
2018-05-10T04:24:27.815Z,452
2018-05-10T04:24:59.899Z,464
2018-05-10T04:25:31.920Z,472
2018-05-10T04:26:03.942Z,480
2018-05-10T04:26:36.003Z,484
2018-05-10T04:27:08.028Z,496
2018-05-10T04:27:40.019Z,504
2018-05-10T04:28:12.033Z,516
2018-05-10T04:28:44.067Z,520
2018-05-10T04:29:16.107Z,532
2018-05-10T04:29:48.144Z,540
2018-05-10T04:30:20.180Z,548
2018-05-10T04:30:52.184Z,556
2018-05-10T04:31:24.283Z,568
2018-05-10T04:31:56.303Z,580
2018-05-10T04:32:28.344Z,592
2018-05-10T04:33:00.415Z,604
2018-05-10T04:33:32.450Z,616
2018-05-10T04:34:04.496Z,624
2018-05-10T04:34:36.546Z,640
2018-05-10T04:35:08.555Z,648
2018-05-10T04:35:40.692Z,656
2018-05-10T04:36:12.655Z,664
2018-05-10T04:36:44.692Z,676
2018-05-10T04:37:16.729Z,688
2018-05-10T04:37:48.710Z,692
2018-05-10T04:38:20.819Z,704
2018-05-10T04:38:52.844Z,712
2018-05-10T04:39:24.880Z,720
2018-05-10T04:39:56.953Z,732
2018-05-10T04:40:29.071Z,744
2018-05-10T04:41:01.092Z,756
2018-05-10T04:41:33.129Z,768
2018-05-10T04:42:05.155Z,776
2018-05-10T04:42:37.206Z,784
2018-05-10T04:43:09.228Z,792
2018-05-10T04:43:41.282Z,800
2018-05-10T04:44:13.296Z,816
2018-05-10T04:44:45.435Z,832
2018-05-10T04:45:17.489Z,848
2018-05-10T04:45:49.464Z,860
2018-05-10T04:46:21.594Z,876
2018-05-10T04:46:53.613Z,892
2018-05-10T04:47:25.642Z,904
2018-05-10T04:47:57.663Z,916
2018-05-10T04:48:29.730Z,928
2018-05-10T04:49:01.758Z,936
2018-05-10T04:49:33.812Z,944
2018-05-10T04:50:05.838Z,952
2018-05-10T04:50:37.892Z,964
2018-05-10T04:51:09.951Z,968
2018-05-10T04:51:41.976Z,984
2018-05-10T04:52:14.020Z,992
2018-05-10T04:52:46.008Z,1008
2018-05-10T04:53:18.051Z,1020
2018-05-10T04:53:50.104Z,1032
2018-05-10T04:54:22.104Z,1048
2018-05-10T04:54:54.223Z,1060
2018-05-10T04:55:26.219Z,1072
2018-05-10T04:55:58.240Z,1088
2018-05-10T04:56:30.304Z,1096
2018-05-10T04:57:02.395Z,1108
2018-05-10T04:57:34.371Z,1120
2018-05-10T04:58:06.407Z,1136
2018-05-10T04:58:38.426Z,1156
2018-05-10T04:59:10.448Z,1164
2018-05-10T04:59:42.490Z,1180
2018-05-10T05:00:14.577Z,1196
2018-05-10T05:00:46.754Z,1204
2018-05-10T05:01:18.916Z,1224
2018-05-10T05:01:50.964Z,1236
2018-05-10T05:02:22.987Z,1248
2018-05-10T05:02:55.032Z,1260
2018-05-10T05:03:27.103Z,1272
2018-05-10T05:03:59.217Z,1280
2018-05-10T05:04:31.249Z,1292
2018-05-10T05:05:03.301Z,1300
2018-05-10T05:05:35.382Z,1304
2018-05-10T05:06:07.425Z,1304
2018-05-10T05:06:39.456Z,1304
2018-05-10T05:07:11.520Z,1300
2018-05-10T05:07:43.592Z,1308
2018-05-10T05:08:16.282Z,1320
2018-05-10T05:08:48.521Z,1340
2018-05-10T05:09:20.424Z,1364
2018-05-10T05:09:52.497Z,1396
2018-05-10T05:10:24.519Z,1412
2018-05-10T05:10:56.557Z,1428
2018-05-10T05:11:28.591Z,1460
2018-05-10T05:12:00.884Z,1484
2018-05-10T05:12:32.883Z,1512
2018-05-10T05:13:05.044Z,1532
2018-05-10T05:13:37.058Z,1552
2018-05-10T05:14:09.106Z,1576
2018-05-10T05:14:41.139Z,1604
2018-05-10T05:15:13.183Z,1624
2018-05-10T05:15:45.212Z,1636
2018-05-10T05:16:17.246Z,1648
2018-05-10T05:16:49.373Z,1660
2018-05-10T05:17:21.413Z,1672
2018-05-10T05:17:53.470Z,1684
2018-05-10T05:18:25.499Z,1692
2018-05-10T05:18:57.567Z,1700
2018-05-10T05:19:29.614Z,1708
2018-05-10T05:20:01.643Z,1708
2018-05-10T05:20:33.714Z,1716
2018-05-10T05:21:05.745Z,1720
2018-05-10T05:21:38.251Z,1724
2018-05-10T05:22:10.231Z,1732
2018-05-10T05:22:42.383Z,1736
2018-05-10T05:23:14.395Z,1748
2018-05-10T05:23:46.421Z,1764
2018-05-10T05:24:18.479Z,1780
2018-05-10T05:24:50.517Z,1808
2018-05-10T05:25:22.531Z,1828
2018-05-10T05:25:54.584Z,1852
2018-05-10T05:26:26.730Z,1872
2018-05-10T05:26:58.875Z,1884
2018-05-10T05:27:30.792Z,1884
2018-05-10T05:28:02.936Z,1876
2018-05-10T05:28:34.975Z,1864
2018-05-10T05:29:07.002Z,1848
2018-05-10T05:29:39.041Z,1840
2018-05-10T05:30:11.073Z,1828
2018-05-10T05:30:43.901Z,1812
2018-05-10T05:31:15.909Z,1784
2018-05-10T05:31:48.046Z,1776
2018-05-10T05:32:20.093Z,1772
2018-05-10T05:32:52.106Z,1796
2018-05-10T05:33:24.126Z,1844
2018-05-10T05:33:56.152Z,1892
2018-05-10T05:34:28.166Z,1940
2018-05-10T05:35:00.202Z,1964
2018-05-10T05:35:32.311Z,1996
2018-05-10T05:36:04.361Z,2028
2018-05-10T05:36:36.532Z,2048
2018-05-10T05:37:08.550Z,2068
2018-05-10T05:37:40.596Z,2100
2018-05-10T05:38:12.640Z,2116
2018-05-10T05:38:45.207Z,2140
2018-05-10T05:39:17.240Z,2164
2018-05-10T05:39:49.254Z,2184
2018-05-10T05:40:21.240Z,2208
2018-05-10T05:40:53.236Z,2240
2018-05-10T05:41:25.924Z,2252
2018-05-10T05:41:58.709Z,2260
2018-05-10T05:42:30.722Z,2300
2018-05-10T05:43:02.768Z,2316
2018-05-10T05:43:35.011Z,2328
2018-05-10T05:44:06.991Z,2364
2018-05-10T05:44:39.093Z,2376
2018-05-10T05:45:11.301Z,2364
2018-05-10T05:45:43.445Z,2404
2018-05-10T05:46:15.422Z,2424
2018-05-10T05:46:47.431Z,2432
2018-05-10T05:47:19.470Z,2464
2018-05-10T05:47:51.486Z,2504
2018-05-10T05:48:23.495Z,2496
2018-05-10T05:48:55.535Z,2488
2018-05-10T05:49:27.547Z,2460
2018-05-10T05:49:59.573Z,2440
2018-05-10T05:50:31.592Z,2452
2018-05-10T05:51:03.649Z,2428
2018-05-10T05:51:35.672Z,2448
2018-05-10T05:52:07.705Z,2456
2018-05-10T05:52:39.716Z,2460
2018-05-10T05:53:11.734Z,2480
2018-05-10T05:53:43.781Z,2492
2018-05-10T05:54:15.878Z,2432
2018-05-10T05:54:48.815Z,2412
2018-05-10T05:55:20.832Z,2420
2018-05-10T05:55:52.832Z,2420
2018-05-10T05:56:24.844Z,2464
2018-05-10T05:56:56.950Z,2456
2018-05-10T05:57:28.994Z,2476
2018-05-10T05:58:01.044Z,2468
2018-05-10T05:58:33.083Z,2424
2018-05-10T05:59:05.137Z,2400
2018-05-10T05:59:37.143Z,2408
2018-05-10T06:00:09.121Z,2496
2018-05-10T06:00:41.128Z,2492
2018-05-10T06:01:13.236Z,2504
2018-05-10T06:01:45.281Z,2520
2018-05-10T06:02:17.287Z,2528
2018-05-10T06:02:49.313Z,2556
2018-05-10T06:03:21.377Z,2572
2018-05-10T06:03:53.416Z,2532
2018-05-10T06:04:25.430Z,2560
2018-05-10T06:04:57.409Z,2564
2018-05-10T06:05:29.428Z,2608
2018-05-10T06:06:01.496Z,2672
2018-05-10T06:06:33.528Z,2728
2018-05-10T06:07:05.570Z,2768
2018-05-10T06:07:37.589Z,2760
2018-05-10T06:08:09.667Z,2732
2018-05-10T06:08:41.812Z,2716
2018-05-10T06:09:14.512Z,2764
2018-05-10T06:09:46.505Z,2764
2018-05-10T06:10:18.484Z,2752
2018-05-10T06:10:51.303Z,2772
2018-05-10T06:11:23.292Z,2748
2018-05-10T06:11:55.340Z,2740
2018-05-10T06:12:27.340Z,2732
2018-05-10T06:12:59.361Z,2764
2018-05-10T06:13:31.379Z,2812
2018-05-10T06:14:03.351Z,2856
2018-05-10T06:14:35.404Z,2856
2018-05-10T06:15:07.420Z,2900
2018-05-10T06:15:39.526Z,2916
2018-05-10T06:16:11.577Z,2948
2018-05-10T06:16:44.336Z,2948
2018-05-10T06:17:16.405Z,3036
2018-05-10T06:17:48.529Z,3096
2018-05-10T06:18:20.599Z,3180
2018-05-10T06:18:52.640Z,3292
2018-05-10T06:19:24.641Z,3368
2018-05-10T06:19:56.619Z,3368
2018-05-10T06:20:28.672Z,3396
2018-05-10T06:21:00.830Z,3412
2018-05-10T06:21:32.831Z,3460
2018-05-10T06:22:04.841Z,3472
2018-05-10T06:22:36.985Z,3524
2018-05-10T06:23:09.103Z,3488
2018-05-10T06:23:41.168Z,3372
2018-05-10T06:24:13.208Z,3364
2018-05-10T06:24:45.259Z,3340
2018-05-10T06:25:17.438Z,3372
2018-05-10T06:25:49.445Z,3496
2018-05-10T06:26:21.460Z,3444
2018-05-10T06:26:53.481Z,3376
2018-05-10T06:27:25.531Z,3380
2018-05-10T06:27:57.660Z,3380
2018-05-10T06:28:29.638Z,3388
2018-05-10T06:29:01.619Z,3260
2018-05-10T06:29:33.641Z,3348
2018-05-10T06:30:05.638Z,3376
2018-05-10T06:30:37.667Z,3292
2018-05-10T06:31:09.813Z,3320
2018-05-10T06:31:41.847Z,3264
2018-05-10T06:32:13.864Z,3280
2018-05-10T06:32:45.875Z,3324
2018-05-10T06:33:17.909Z,3304
2018-05-10T06:33:49.953Z,3324
2018-05-10T06:34:21.982Z,3252
2018-05-10T06:34:54.066Z,3164
2018-05-10T06:35:26.103Z,3388
2018-05-10T06:35:58.159Z,3344
2018-05-10T06:36:30.352Z,3380
2018-05-10T06:37:03.173Z,3400
2018-05-10T06:37:35.189Z,3432
2018-05-10T06:38:07.207Z,3344
2018-05-10T06:38:40.532Z,3280
2018-05-10T06:39:12.574Z,3220
2018-05-10T06:39:44.581Z,3272
2018-05-10T06:40:16.599Z,3332
2018-05-10T06:40:50.041Z,3312
2018-05-10T06:41:22.074Z,3364
2018-05-10T06:41:54.115Z,3308
2018-05-10T06:42:26.164Z,3388
2018-05-10T06:42:58.169Z,3416
2018-05-10T06:43:30.174Z,3196
2018-05-10T06:44:02.215Z,3376
2018-05-10T06:44:34.242Z,3312
2018-05-10T06:45:06.322Z,3216
2018-05-10T06:45:38.367Z,3144
2018-05-10T06:46:10.480Z,3156
2018-05-10T06:46:42.555Z,3096
2018-05-10T06:47:14.556Z,3208
2018-05-10T06:47:46.663Z,2900
2018-05-10T06:48:18.685Z,2840
2018-05-10T06:48:50.708Z,3012
2018-05-10T06:49:22.742Z,3140
2018-05-10T06:49:54.892Z,2848
2018-05-10T06:50:26.909Z,2716
2018-05-10T06:50:58.926Z,2692
2018-05-10T06:51:30.957Z,2736
2018-05-10T06:52:02.972Z,3116
2018-05-10T06:52:35.021Z,2928
2018-05-10T06:53:07.023Z,2996
2018-05-10T06:53:39.061Z,3096
2018-05-10T06:54:11.064Z,3016
2018-05-10T06:54:43.183Z,2760
2018-05-10T06:55:15.255Z,2724
2018-05-10T06:55:47.255Z,2836
2018-05-10T06:56:19.266Z,2840
2018-05-10T06:56:51.402Z,2748
2018-05-10T06:57:23.384Z,2636
2018-05-10T06:57:55.419Z,2572
2018-05-10T06:58:27.438Z,2544
2018-05-10T06:58:59.496Z,2564
2018-05-10T06:59:31.521Z,2532
2018-05-10T07:00:03.548Z,2524
2018-05-10T07:00:35.597Z,2504
2018-05-10T07:01:07.657Z,2472
2018-05-10T07:01:39.689Z,2380
2018-05-10T07:02:11.720Z,2340
2018-05-10T07:02:43.716Z,2416
2018-05-10T07:03:15.906Z,2544
2018-05-10T07:03:47.973Z,2532
2018-05-10T07:04:19.982Z,2432
2018-05-10T07:04:52.049Z,2736
2018-05-10T07:05:24.091Z,2720
2018-05-10T07:05:56.082Z,2792
2018-05-10T07:06:28.087Z,2940
2018-05-10T07:07:00.092Z,3916
2018-05-10T07:07:32.130Z,3496
2018-05-10T07:08:04.171Z,3008
2018-05-10T07:08:36.372Z,2908
2018-05-10T07:09:09.376Z,2876
2018-05-10T07:09:41.480Z,2848
2018-05-10T07:10:13.457Z,3132
2018-05-10T07:10:45.437Z,2604
2018-05-10T07:11:17.450Z,2464
2018-05-10T07:11:49.545Z,2544
2018-05-10T07:12:21.581Z,2780
2018-05-10T07:12:53.607Z,3632
2018-05-10T07:13:25.650Z,3248
2018-05-10T07:13:57.763Z,3220
2018-05-10T07:14:29.810Z,2820
2018-05-10T07:15:01.852Z,2748
2018-05-10T07:15:33.936Z,2260
2018-05-10T07:16:05.940Z,2192
2018-05-10T07:16:38.037Z,2096
2018-05-10T07:17:10.071Z,2072
2018-05-10T07:17:42.097Z,2088
2018-05-10T07:18:14.126Z,2040
2018-05-10T07:18:46.196Z,2052
2018-05-10T07:19:18.197Z,2064
2018-05-10T07:19:50.213Z,2204
2018-05-10T07:20:22.190Z,2228
2018-05-10T07:20:54.223Z,2188
2018-05-10T07:21:26.249Z,2212
2018-05-10T07:21:58.259Z,2216
2018-05-10T07:22:30.259Z,2364
2018-05-10T07:23:02.761Z,2456
2018-05-10T07:23:34.831Z,2428
2018-05-10T07:24:06.828Z,2416
2018-05-10T07:24:38.869Z,2424
2018-05-10T07:25:11.149Z,2424
2018-05-10T07:25:43.092Z,2340
2018-05-10T07:26:15.123Z,2256
2018-05-10T07:26:47.119Z,2044
2018-05-10T07:27:19.140Z,1952
2018-05-10T07:27:51.226Z,1956
2018-05-10T07:28:23.254Z,2008
2018-05-10T07:28:55.263Z,2084
2018-05-10T07:29:27.267Z,2212
2018-05-10T07:29:59.312Z,2360
2018-05-10T07:30:31.340Z,2592
2018-05-10T07:31:03.347Z,2816
2018-05-10T07:31:35.335Z,3168
2018-05-10T07:32:07.323Z,3136
2018-05-10T07:32:39.361Z,3720
2018-05-10T07:33:11.410Z,3432
2018-05-10T07:33:43.392Z,3592
2018-05-10T07:34:15.358Z,3868
2018-05-10T07:34:47.380Z,3732
2018-05-10T07:35:19.407Z,3656
2018-05-10T07:35:51.506Z,3452
2018-05-10T07:36:23.672Z,3324
2018-05-10T07:36:55.671Z,3272
2018-05-10T07:37:28.475Z,3324
2018-05-10T07:38:00.506Z,3368
2018-05-10T07:38:32.647Z,3496
2018-05-10T07:39:04.797Z,4284
2018-05-10T07:39:36.937Z,3924
2018-05-10T07:40:08.937Z,4204
2018-05-10T07:40:40.922Z,3764
2018-05-10T07:41:13.030Z,3580
2018-05-10T07:41:45.074Z,3840
2018-05-10T07:42:17.080Z,4140
2018-05-10T07:42:49.107Z,4284
2018-05-10T07:43:21.147Z,4496
2018-05-10T07:43:53.240Z,4676
2018-05-10T07:44:25.300Z,4580
2018-05-10T07:44:57.262Z,4148
2018-05-10T07:45:29.290Z,4372
2018-05-10T07:46:01.322Z,3656
2018-05-10T07:46:33.370Z,4448
2018-05-10T07:47:05.454Z,4372
2018-05-10T07:47:37.499Z,4644
2018-05-10T07:48:09.477Z,4276
2018-05-10T07:48:41.596Z,4196
2018-05-10T07:49:13.632Z,4388
2018-05-10T07:49:45.669Z,4304
2018-05-10T07:50:17.634Z,4244
2018-05-10T07:50:49.769Z,4364
2018-05-10T07:51:21.755Z,4312
2018-05-10T07:51:53.753Z,3904
2018-05-10T07:52:25.831Z,3888
2018-05-10T07:52:58.580Z,4040